createdAt,value
2022-08-09T00:00:12.093Z,16.80
2022-08-09T00:02:43.070Z,16.90
2022-08-09T00:06:17.818Z,16.90
2022-08-09T00:08:10.698Z,16.90
2022-08-09T00:10:39.155Z,16.60
2022-08-09T00:13:16.910Z,16.40
2022-08-09T00:15:58.923Z,16.30
2022-08-09T00:18:34.916Z,16.10
2022-08-09T00:21:08.810Z,16.00
2022-08-09T00:23:56.598Z,16.00
2022-08-09T00:26:32.301Z,15.90
2022-08-09T00:29:01.748Z,15.80
2022-08-09T00:31:55.782Z,15.70
2022-08-09T00:34:19.430Z,15.60
2022-08-09T00:36:48.043Z,15.60
2022-08-09T00:40:08.937Z,15.60
2022-08-09T00:44:14.658Z,15.50
2022-08-09T00:44:49.354Z,15.40
2022-08-09T00:47:16.111Z,15.30
2022-08-09T00:49:43.831Z,15.30
2022-08-09T00:52:22.805Z,15.30
2022-08-09T00:55:01.443Z,15.20
2022-08-09T00:57:34.931Z,15.20
2022-08-09T01:00:21.901Z,15.10
2022-08-09T01:03:06.062Z,15.10
2022-08-09T01:06:03.924Z,15.20
2022-08-09T01:09:06.138Z,15.10
2022-08-09T01:11:53.294Z,15.10
2022-08-09T01:15:05.949Z,15.00
2022-08-09T01:17:51.890Z,15.00
2022-08-09T01:20:35.369Z,14.90
2022-08-09T01:24:03.566Z,15.00
2022-08-09T01:26:38.212Z,15.00
2022-08-09T01:29:07.019Z,15.00
2022-08-09T01:32:31.832Z,15.00
2022-08-09T01:34:26.117Z,15.00
2022-08-09T01:36:56.339Z,14.90
2022-08-09T01:39:26.565Z,14.90
2022-08-09T01:41:59.858Z,14.90
2022-08-09T01:44:29.812Z,14.90
2022-08-09T01:46:59.893Z,14.90
2022-08-09T01:49:28.346Z,14.90
2022-08-09T01:52:14.494Z,14.80
2022-08-09T01:54:48.803Z,14.80
2022-08-09T01:57:24.877Z,14.80
2022-08-09T02:00:00.281Z,14.70
2022-08-09T02:02:45.922Z,14.80
2022-08-09T02:05:16.172Z,14.80
2022-08-09T02:08:38.949Z,14.90
2022-08-09T02:10:51.032Z,14.90
2022-08-09T02:13:22.117Z,14.80
2022-08-09T02:15:55.239Z,14.70
2022-08-09T02:18:28.340Z,14.70
2022-08-09T02:21:00.164Z,14.70
2022-08-09T02:23:40.030Z,14.70
2022-08-09T02:26:25.117Z,14.70
2022-08-09T02:28:57.520Z,14.60
2022-08-09T02:31:34.052Z,14.50
2022-08-09T02:34:13.783Z,14.60
2022-08-09T02:36:55.087Z,14.50
2022-08-09T02:39:34.193Z,14.60
2022-08-09T02:42:16.842Z,14.50
2022-08-09T02:44:50.421Z,14.40
2022-08-09T02:47:19.908Z,14.40
2022-08-09T02:50:01.288Z,14.40
2022-08-09T02:52:35.355Z,14.30
2022-08-09T02:55:19.915Z,14.30
2022-08-09T02:58:32.490Z,14.20
2022-08-09T03:00:39.515Z,14.20
2022-08-09T03:04:13.762Z,14.20
2022-08-09T03:06:14.937Z,14.20
2022-08-09T03:08:45.147Z,14.10
2022-08-09T03:12:05.372Z,14.10
2022-08-09T03:14:06.547Z,14.10
2022-08-09T03:16:37.379Z,14.00
2022-08-09T03:19:14.530Z,14.00
2022-08-09T03:21:57.895Z,14.00
2022-08-09T03:24:42.417Z,13.90
2022-08-09T03:27:13.478Z,13.90
2022-08-09T03:29:58.065Z,13.80
2022-08-09T03:32:31.258Z,13.80
2022-08-09T03:34:59.682Z,13.80
2022-08-09T03:37:54.422Z,13.90
2022-08-09T03:40:18.107Z,13.80
2022-08-09T03:42:46.632Z,13.80
2022-08-09T03:45:13.837Z,13.80
2022-08-09T03:47:46.828Z,13.70
2022-08-09T03:50:27.563Z,13.70
2022-08-09T03:52:57.694Z,13.80
2022-08-09T03:55:26.560Z,13.70
2022-08-09T03:58:03.245Z,13.70
2022-08-09T04:00:33.831Z,13.70
2022-08-09T04:03:01.210Z,13.70
2022-08-09T04:05:28.303Z,13.80
2022-08-09T04:07:57.304Z,13.80
2022-08-09T04:10:29.578Z,13.80
2022-08-09T04:13:01.091Z,13.80
2022-08-09T04:16:17.446Z,13.80
2022-08-09T04:18:19.280Z,13.70
2022-08-09T04:20:48.121Z,13.80
2022-08-09T04:23:16.790Z,13.70
2022-08-09T04:25:51.610Z,13.70
2022-08-09T04:28:34.146Z,13.70
2022-08-09T04:31:08.574Z,13.60
2022-08-09T04:33:52.689Z,13.50
2022-08-09T04:36:25.483Z,13.50
2022-08-09T04:38:53.627Z,13.60
2022-08-09T04:41:23.675Z,13.60
2022-08-09T04:44:05.031Z,13.60
2022-08-09T04:46:56.750Z,13.60
2022-08-09T04:49:22.332Z,13.70
2022-08-09T04:52:07.880Z,13.70
2022-08-09T04:54:36.550Z,13.70
2022-08-09T04:57:03.861Z,13.80
2022-08-09T04:59:31.077Z,13.80
2022-08-09T05:01:58.162Z,13.90
2022-08-09T05:04:30.663Z,13.90
2022-08-09T05:06:58.190Z,13.90
2022-08-09T05:09:25.003Z,14.00
2022-08-09T05:12:11.149Z,14.10
2022-08-09T05:14:41.034Z,14.10
2022-08-09T05:17:15.359Z,14.20
2022-08-09T05:19:57.059Z,14.30
2022-08-09T05:23:50.404Z,14.30
2022-08-09T05:25:15.112Z,14.30
2022-08-09T05:27:46.548Z,14.30
2022-08-09T05:30:17.606Z,14.30
2022-08-09T05:32:45.574Z,14.40
2022-08-09T05:35:18.107Z,14.40
2022-08-09T05:37:49.975Z,14.40
2022-08-09T05:40:17.242Z,14.60
2022-08-09T05:42:45.239Z,15.10
2022-08-09T05:45:14.244Z,15.70
2022-08-09T05:47:52.134Z,17.10
2022-08-09T05:50:35.966Z,18.10
2022-08-09T05:53:11.713Z,18.30
2022-08-09T05:55:50.725Z,18.80
2022-08-09T05:58:19.869Z,19.10
2022-08-09T06:00:46.602Z,18.80
2022-08-09T06:03:20.092Z,18.40
2022-08-09T06:05:57.391Z,18.30
2022-08-09T06:08:31.603Z,18.10
2022-08-09T06:10:59.189Z,18.00
2022-08-09T06:13:28.231Z,17.90
2022-08-09T06:15:55.568Z,17.90
2022-08-09T06:18:24.868Z,18.10
2022-08-09T06:20:57.121Z,18.20
2022-08-09T06:23:58.111Z,18.30
2022-08-09T06:26:20.421Z,18.50
2022-08-09T06:29:00.790Z,18.60
2022-08-09T06:31:39.225Z,18.90
2022-08-09T06:34:07.679Z,19.10
2022-08-09T06:36:36.221Z,19.10
2022-08-09T06:39:09.310Z,19.30
2022-08-09T06:42:08.742Z,19.40
2022-08-09T06:44:26.604Z,19.50
2022-08-09T06:46:55.239Z,19.70
2022-08-09T06:49:44.499Z,19.90
2022-08-09T06:52:10.170Z,20.10
2022-08-09T06:54:38.777Z,20.20
2022-08-09T06:57:05.770Z,20.50
2022-08-09T07:00:50.757Z,20.70
2022-08-09T07:02:21.924Z,20.90
2022-08-09T07:04:56.033Z,21.10
2022-08-09T07:08:00.054Z,21.40
2022-08-09T07:10:22.252Z,21.50
2022-08-09T07:12:57.052Z,21.80
2022-08-09T07:15:53.922Z,21.90
2022-08-09T07:18:11.666Z,22.20
2022-08-09T07:20:43.345Z,22.50
2022-08-09T07:23:18.549Z,22.60
2022-08-09T07:25:47.475Z,22.90
2022-08-09T07:28:19.138Z,22.90
2022-08-09T07:30:54.001Z,23.10
2022-08-09T07:33:22.048Z,23.20
2022-08-09T07:35:54.202Z,23.20
2022-08-09T07:38:23.201Z,23.10
2022-08-09T07:40:54.051Z,23.00
2022-08-09T07:43:41.363Z,22.90
2022-08-09T07:46:19.457Z,23.00
2022-08-09T07:48:58.966Z,23.10
2022-08-09T07:52:05.942Z,23.30
2022-08-09T07:54:14.154Z,23.50
2022-08-09T07:56:44.911Z,23.70
2022-08-09T07:59:25.100Z,24.00
2022-08-09T08:01:53.670Z,24.10
2022-08-09T08:04:20.419Z,24.00
2022-08-09T08:07:09.210Z,23.90
2022-08-09T08:09:51.774Z,24.00
2022-08-09T08:12:27.705Z,24.10
2022-08-09T08:15:10.054Z,24.20
2022-08-09T08:17:54.622Z,24.20
2022-08-09T08:20:29.096Z,24.20
2022-08-09T08:23:01.496Z,24.20
2022-08-09T08:25:44.059Z,24.10
2022-08-09T08:28:14.451Z,24.20
2022-08-09T08:30:47.574Z,24.20
2022-08-09T08:33:23.905Z,24.30
2022-08-09T08:36:00.218Z,24.50
2022-08-09T08:38:28.765Z,24.60
2022-08-09T08:40:57.688Z,24.80
2022-08-09T08:43:26.515Z,24.90
2022-08-09T08:46:09.967Z,25.10
2022-08-09T08:48:51.750Z,25.00
2022-08-09T08:51:22.582Z,24.90
2022-08-09T08:54:03.700Z,24.90
2022-08-09T08:56:37.786Z,24.90
2022-08-09T08:59:19.465Z,25.10
2022-08-09T09:01:52.831Z,25.10
2022-08-09T09:04:27.680Z,25.10
2022-08-09T09:06:58.222Z,24.80
2022-08-09T09:09:57.919Z,24.80
2022-08-09T09:12:17.139Z,24.90
2022-08-09T09:14:44.890Z,24.80
2022-08-09T09:17:16.410Z,24.90
2022-08-09T09:19:44.369Z,25.00
2022-08-09T09:22:15.918Z,25.10
2022-08-09T09:25:00.849Z,25.00
2022-08-09T09:28:06.344Z,25.20
2022-08-09T09:30:47.381Z,25.30
2022-08-09T09:33:17.281Z,25.20
2022-08-09T09:36:02.744Z,25.30
2022-08-09T09:38:56.789Z,25.60
2022-08-09T09:41:27.963Z,25.60
2022-08-09T09:44:11.779Z,25.80
2022-08-09T09:46:51.969Z,25.80
2022-08-09T09:49:49.931Z,25.80
2022-08-09T09:52:33.607Z,25.90
2022-08-09T09:55:23.960Z,26.10
2022-08-09T09:58:16.995Z,26.20
2022-08-09T10:00:54.545Z,26.30
2022-08-09T10:03:44.607Z,26.50
2022-08-09T10:06:12.577Z,26.80
2022-08-09T10:08:54.256Z,26.80
2022-08-09T10:11:59.727Z,26.80
2022-08-09T10:14:31.792Z,27.00
2022-08-09T10:17:24.334Z,27.10
2022-08-09T10:19:58.896Z,27.20
2022-08-09T10:22:37.128Z,27.30
2022-08-09T10:25:12.146Z,27.20
2022-08-09T10:27:56.598Z,27.30
2022-08-09T10:34:04.696Z,27.00
2022-08-09T10:36:04.625Z,27.00
2022-08-09T10:38:55.510Z,27.20
2022-08-09T10:41:20.666Z,27.30
2022-08-09T10:43:59.487Z,27.50
2022-08-09T10:47:01.085Z,27.60
2022-08-09T10:50:15.043Z,27.50
2022-08-09T10:53:04.579Z,27.30
2022-08-09T10:55:35.733Z,27.40
2022-08-09T10:58:34.772Z,27.60
2022-08-09T11:03:02.788Z,27.90
2022-08-09T11:04:20.004Z,28.00
2022-08-09T11:06:57.864Z,28.10
2022-08-09T11:09:38.894Z,27.90
2022-08-09T11:12:26.614Z,27.80
2022-08-09T11:15:01.421Z,27.90
2022-08-09T11:17:31.396Z,27.70
2022-08-09T11:20:12.026Z,27.90
2022-08-09T11:22:55.319Z,27.90
2022-08-09T11:25:46.124Z,27.80
2022-08-09T11:28:38.756Z,27.90
2022-08-09T11:31:43.062Z,28.00
2022-08-09T11:34:20.958Z,28.10
2022-08-09T11:36:48.829Z,28.30
2022-08-09T11:39:16.644Z,28.40
2022-08-09T11:41:45.178Z,28.20
2022-08-09T11:44:12.047Z,28.10
2022-08-09T11:46:57.698Z,28.00
2022-08-09T11:50:54.017Z,28.00
2022-08-09T11:53:58.005Z,28.00
2022-08-09T11:56:19.407Z,28.20
2022-08-09T11:58:52.077Z,28.20
2022-08-09T12:01:37.819Z,28.20
2022-08-09T12:04:20.876Z,28.30
2022-08-09T12:06:58.759Z,28.30
2022-08-09T12:09:27.777Z,28.30
2022-08-09T12:12:05.981Z,28.30
2022-08-09T12:15:04.403Z,28.30
2022-08-09T12:17:34.466Z,28.50
2022-08-09T12:20:19.816Z,28.60
2022-08-09T12:22:59.682Z,28.80
2022-08-09T12:25:32.096Z,28.90
2022-08-09T12:29:15.118Z,29.00
2022-08-09T12:31:11.281Z,28.90
2022-08-09T12:34:01.182Z,28.60
2022-08-09T12:36:32.372Z,28.60
2022-08-09T12:39:01.446Z,28.40
2022-08-09T12:41:34.873Z,28.40
2022-08-09T12:44:09.680Z,28.50
2022-08-09T12:46:39.723Z,28.60
2022-08-09T12:49:08.685Z,28.70
2022-08-09T12:56:13.966Z,28.70
2022-08-09T12:58:28.992Z,28.80
2022-08-09T13:00:57.777Z,28.90
2022-08-09T13:03:53.399Z,28.90
2022-08-09T13:06:34.772Z,28.90
2022-08-09T13:09:11.046Z,28.80
2022-08-09T13:11:45.623Z,28.60
2022-08-09T13:14:40.974Z,28.60
2022-08-09T13:17:08.616Z,28.60
2022-08-09T13:20:10.334Z,28.70
2022-08-09T13:22:35.668Z,28.70
2022-08-09T13:25:07.466Z,28.70
2022-08-09T13:27:39.444Z,28.90
2022-08-09T13:31:53.615Z,29.10
2022-08-09T13:33:07.012Z,29.00
2022-08-09T13:36:38.548Z,29.00
2022-08-09T13:38:54.554Z,29.20
2022-08-09T13:41:46.175Z,29.20
2022-08-09T13:43:59.204Z,29.20
2022-08-09T13:47:13.674Z,29.30
2022-08-09T13:49:18.499Z,29.40
2022-08-09T13:51:58.746Z,29.40
2022-08-09T13:54:30.404Z,29.40
2022-08-09T13:56:57.586Z,29.30
2022-08-09T13:59:25.737Z,29.20
2022-08-09T14:02:08.413Z,29.20
2022-08-09T14:04:36.738Z,29.20
2022-08-09T14:07:04.126Z,29.10
2022-08-09T14:09:34.755Z,29.10
2022-08-09T14:12:07.062Z,29.20
2022-08-09T14:14:44.076Z,29.20
2022-08-09T14:17:12.927Z,29.00
2022-08-09T14:19:39.646Z,28.90
2022-08-09T14:22:07.256Z,28.90
2022-08-09T14:24:35.956Z,28.90
2022-08-09T14:27:19.875Z,29.00
2022-08-09T14:30:34.457Z,29.10
2022-08-09T14:32:34.287Z,29.00
2022-08-09T14:35:06.244Z,28.90
2022-08-09T14:37:41.056Z,29.00
2022-08-09T14:40:19.616Z,29.00
2022-08-09T14:43:06.312Z,29.10
2022-08-09T14:46:54.310Z,29.10
2022-08-09T14:48:19.806Z,29.10
2022-08-09T14:50:48.102Z,29.10
2022-08-09T14:53:15.707Z,29.00
2022-08-09T14:55:50.239Z,29.10
2022-08-09T14:58:18.384Z,29.10
2022-08-09T15:00:48.574Z,29.20
2022-08-09T15:03:19.998Z,29.20
2022-08-09T15:05:52.516Z,29.10
2022-08-09T15:08:30.154Z,29.10
2022-08-09T15:11:00.692Z,29.00
2022-08-09T15:13:48.118Z,28.90
2022-08-09T15:16:19.536Z,28.80
2022-08-09T15:18:49.156Z,28.70
2022-08-09T15:21:57.001Z,28.80
2022-08-09T15:24:12.726Z,28.80
2022-08-09T15:26:45.952Z,28.70
2022-08-09T15:30:57.553Z,28.80
2022-08-09T15:32:00.154Z,28.70
2022-08-09T15:34:34.663Z,28.80
2022-08-09T15:37:23.382Z,28.80
2022-08-09T15:39:54.854Z,28.80
2022-08-09T15:42:22.132Z,28.70
2022-08-09T15:44:49.709Z,28.70
2022-08-09T15:47:21.812Z,28.70
2022-08-09T15:50:03.415Z,28.70
2022-08-09T15:52:34.246Z,28.70
2022-08-09T15:55:02.528Z,28.80
2022-08-09T15:57:35.335Z,28.70
2022-08-09T16:00:21.904Z,28.80
2022-08-09T16:02:54.654Z,28.80
2022-08-09T16:05:23.309Z,28.80
2022-08-09T16:07:50.708Z,28.70
2022-08-09T16:10:54.841Z,28.70
2022-08-09T16:13:05.092Z,28.60
2022-08-09T16:16:04.453Z,28.50
2022-08-09T16:18:34.050Z,28.50
2022-08-09T16:21:00.869Z,28.50
2022-08-09T16:23:27.666Z,28.50
2022-08-09T16:26:02.569Z,28.50
2022-08-09T16:28:29.782Z,28.50
2022-08-09T16:30:59.345Z,28.50
2022-08-09T16:33:26.976Z,28.50
2022-08-09T16:35:57.981Z,28.40
2022-08-09T16:38:26.826Z,28.30
2022-08-09T16:40:53.625Z,28.30
2022-08-09T16:43:22.249Z,28.30
2022-08-09T16:45:53.661Z,28.30
2022-08-09T16:48:42.615Z,28.30
2022-08-09T16:51:13.930Z,28.30
2022-08-09T16:56:34.406Z,28.30
2022-08-09T16:59:06.548Z,28.20
2022-08-09T17:01:37.512Z,28.20
2022-08-09T17:04:06.731Z,28.10
2022-08-09T17:08:40.292Z,28.20
2022-08-09T17:09:43.990Z,28.00
2022-08-09T17:12:08.302Z,28.00
2022-08-09T17:14:35.246Z,28.00
2022-08-09T17:17:03.122Z,28.00
2022-08-09T17:20:04.915Z,28.00
2022-08-09T17:22:24.017Z,27.90
2022-08-09T17:25:02.701Z,27.90
2022-08-09T17:27:32.168Z,27.80
2022-08-09T17:29:58.844Z,27.70
2022-08-09T17:32:34.786Z,27.80
2022-08-09T17:35:10.738Z,27.80
2022-08-09T17:38:02.401Z,27.80
2022-08-09T17:40:27.048Z,27.60
2022-08-09T17:42:59.194Z,27.70
2022-08-09T17:46:02.178Z,27.70
2022-08-09T17:48:17.097Z,27.60
2022-08-09T17:50:48.482Z,27.60
2022-08-09T17:53:23.465Z,27.40
2022-08-09T17:55:57.010Z,27.30
2022-08-09T17:58:27.383Z,27.20
2022-08-09T18:00:56.719Z,27.20
2022-08-09T18:03:25.882Z,27.20
2022-08-09T18:05:57.068Z,27.20
2022-08-09T18:08:27.602Z,27.20
2022-08-09T18:11:02.223Z,27.20
2022-08-09T18:13:39.022Z,27.10
2022-08-09T18:16:10.451Z,27.10
2022-08-09T18:18:42.733Z,27.00
2022-08-09T18:21:18.984Z,26.90
2022-08-09T18:24:10.376Z,26.80
2022-08-09T18:26:37.981Z,26.70
2022-08-09T18:30:37.958Z,26.60
2022-08-09T18:31:56.337Z,26.60
2022-08-09T18:34:23.923Z,26.50
2022-08-09T18:36:53.424Z,26.40
2022-08-09T18:39:22.332Z,26.40
2022-08-09T18:41:53.291Z,26.20
2022-08-09T18:44:25.578Z,26.00
2022-08-09T18:47:07.923Z,25.90
2022-08-09T18:49:43.320Z,25.60
2022-08-09T18:52:14.434Z,25.60
2022-08-09T18:54:49.698Z,25.40
2022-08-09T18:57:22.277Z,25.20
2022-08-09T18:59:57.427Z,25.10
2022-08-09T19:02:32.187Z,25.00
2022-08-09T19:05:03.983Z,24.90
2022-08-09T19:07:59.313Z,24.60
2022-08-09T19:10:37.468Z,24.40
2022-08-09T19:13:22.283Z,24.30
2022-08-09T19:15:56.314Z,24.10
2022-08-09T19:18:33.819Z,24.00
2022-08-09T19:21:08.838Z,23.70
2022-08-09T19:24:38.054Z,23.60
2022-08-09T19:26:29.503Z,23.50
2022-08-09T19:29:15.364Z,23.40
2022-08-09T19:31:46.365Z,23.20
2022-08-09T19:34:18.364Z,23.10
2022-08-09T19:36:51.017Z,23.00
2022-08-09T19:39:20.742Z,22.90
2022-08-09T19:41:56.955Z,22.90
2022-08-09T19:44:23.997Z,22.80
2022-08-09T19:46:53.488Z,22.70
2022-08-09T19:50:10.140Z,22.70
2022-08-09T19:52:08.410Z,22.50
2022-08-09T19:54:35.604Z,22.40
2022-08-09T19:57:02.681Z,22.30
2022-08-09T19:59:58.619Z,22.30
2022-08-09T20:04:12.611Z,22.20
2022-08-09T20:05:10.085Z,22.10
2022-08-09T20:07:57.161Z,22.10
2022-08-09T20:10:36.408Z,22.00
2022-08-09T20:13:05.531Z,22.00
2022-08-09T20:16:37.975Z,21.80
2022-08-09T20:18:20.287Z,21.70
2022-08-09T20:20:50.431Z,21.70
2022-08-09T20:23:19.413Z,21.60
2022-08-09T20:25:53.334Z,21.60
2022-08-09T20:28:34.141Z,21.40
2022-08-09T20:31:04.731Z,21.40
2022-08-09T20:33:40.886Z,21.30
2022-08-09T20:36:11.520Z,21.20
2022-08-09T20:39:17.103Z,21.10
2022-08-09T20:41:29.230Z,21.10
2022-08-09T20:44:02.234Z,21.00
2022-08-09T20:46:41.882Z,21.00
2022-08-09T20:49:11.259Z,20.90
2022-08-09T20:51:41.605Z,20.80
2022-08-09T20:54:12.595Z,20.80
2022-08-09T20:56:46.661Z,20.80
2022-08-09T20:59:16.770Z,20.70
2022-08-09T21:01:51.621Z,20.60
2022-08-09T21:05:53.628Z,20.70
2022-08-09T21:07:11.047Z,20.70
2022-08-09T21:09:56.397Z,20.60
2022-08-09T21:12:32.194Z,20.70
2022-08-09T21:15:01.237Z,20.60
2022-08-09T21:18:22.312Z,20.50
2022-08-09T21:20:22.878Z,20.50
2022-08-09T21:22:54.423Z,20.50
2022-08-09T21:25:44.390Z,20.50
2022-08-09T21:28:34.104Z,20.50
2022-08-09T21:31:17.669Z,20.60
2022-08-09T21:33:52.716Z,20.70
2022-08-09T21:36:28.876Z,20.60
2022-08-09T21:38:58.066Z,20.70
2022-08-09T21:42:04.390Z,20.80
2022-08-09T21:44:34.241Z,20.90
2022-08-09T21:47:07.411Z,21.20
2022-08-09T21:49:39.531Z,21.50
2022-08-09T21:52:17.019Z,21.60
2022-08-09T21:54:56.807Z,21.70
2022-08-09T21:57:39.311Z,22.00
2022-08-09T22:00:32.092Z,22.10
2022-08-09T22:03:01.941Z,22.00
2022-08-09T22:05:35.886Z,22.10
2022-08-09T22:08:13.697Z,22.10
2022-08-09T22:11:00.326Z,22.10
2022-08-09T22:13:34.150Z,22.10
2022-08-09T22:16:07.345Z,22.10
2022-08-09T22:18:37.154Z,22.10
2022-08-09T22:21:09.293Z,22.10
2022-08-09T22:23:58.651Z,22.10
2022-08-09T22:26:34.152Z,22.10
2022-08-09T22:29:05.411Z,22.20
2022-08-09T22:31:35.574Z,22.30
2022-08-09T22:34:02.385Z,22.20
2022-08-09T22:36:29.090Z,22.20
2022-08-09T22:39:47.035Z,22.20
2022-08-09T22:41:59.364Z,22.10
2022-08-09T22:44:29.954Z,22.20
2022-08-09T22:48:16.321Z,22.10
2022-08-09T22:49:48.138Z,22.10
2022-08-09T22:52:19.669Z,22.10
2022-08-09T22:54:47.607Z,22.10
2022-08-09T22:57:15.099Z,22.00
2022-08-09T22:59:57.273Z,22.00
2022-08-09T23:02:25.413Z,21.90
2022-08-09T23:04:54.779Z,22.00
2022-08-09T23:08:23.392Z,21.90
2022-08-09T23:10:31.009Z,21.90
2022-08-09T23:12:58.376Z,21.80
2022-08-09T23:15:25.317Z,21.80
2022-08-09T23:17:52.142Z,21.60
2022-08-09T23:20:18.833Z,21.50
2022-08-09T23:22:45.500Z,21.60
2022-08-09T23:25:12.844Z,21.60
2022-08-09T23:27:58.425Z,21.60
2022-08-09T23:30:26.305Z,21.70
2022-08-09T23:32:52.946Z,21.70
2022-08-09T23:35:19.773Z,21.60
2022-08-09T23:37:46.490Z,21.60
2022-08-09T23:40:13.396Z,21.60
2022-08-09T23:42:40.511Z,21.50
2022-08-09T23:45:08.837Z,21.40
2022-08-09T23:47:35.704Z,21.40
2022-08-09T23:50:02.576Z,21.40
2022-08-09T23:52:29.285Z,21.40
2022-08-09T23:54:57.631Z,21.40
2022-08-09T23:57:24.349Z,21.30
